KSAC/SAC METAR and TAF weather

Enter ICAO airport designator
Station Type Date Time Source
KSAC METAR 2019/12/06 08:53 UTC NOAA

KSAC 060853Z AUTO 00000KT 10SM OVC055 12/09 A3005 RMK AO2 SLP176 T01220094 53002


Station Type Date Time Source
KSAC Decoded METAR 2019/12/06 08:53 UTC NOAA

SACRAMENTO EXECUTIVE AIRPORT , CA, United States (KSAC) 38-30N 121-30W 11M
Dec 06, 2019 - 03:53 AM EST / 2019.12.06 0853 UTC
Wind: Calm:0
Visibility: 10 mile(s):0
Sky conditions: overcast
Temperature: 54.0 F (12.2 C)
Dew Point: 48.9 F (9.4 C)
Relative Humidity: 82%
Pressure (altimeter): 30.05 in. Hg (1017 hPa)
Pressure tendency: 0.01 inches (0.2 hPa) higher than three hours ago
ob: KSAC 060853Z AUTO 00000KT 10SM OVC055 12/09 A3005 RMK AO2 SLP176 T01220094 53002
cycle: 9

Station Type Date Time Source
KSAC TAF 2019/12/06 06:36 UTC NOAA

TAF KSAC 060535Z 0606/0706 VRB04KT P6SM OVC060
FM060900 12003KT 4SM BR OVC050
FM061700 16010KT P6SM OVC050
FM062300 16012G18KT P6SM OVC050
FM070300 15017G23KT 6SM -RA OVC050

Example: see airport list